CYHZ/YHZ METAR and TAF weather

Enter ICAO airport designator
Station Type Date Time Source
CYHZ METAR 2022/01/18 07:53 UTC NOAA

CYHZ 180753Z 17006KT 3SM -SHRA BR SCT004 BKN025 OVC042 05/04 A2916 RMK SF4SC2SC2 VIS VRB 2 1/4-4 VIS N 8 CVCTV CLD EMBD SLP882


Station Type Date Time Source
CYHZ Decoded METAR 2022/01/18 07:53 UTC NOAA

Halifax International Airport , Canada (CYHZ) 44-53N 063-30W
Jan 18, 2022 - 02:53 AM EST / 2022.01.18 0753 UTC
Wind: from the S (170 degrees) at 7 MPH (6 KT):0
Visibility: 3 mile(s):0
Sky conditions: overcast
Weather: light rain showers; mist
Temperature: 41 F (5 C)
Dew Point: 39 F (4 C)
Relative Humidity: 93%
Pressure (altimeter): 29.16 in. Hg (987 hPa)
ob: CYHZ 180753Z 17006KT 3SM -SHRA BR SCT004 BKN025 OVC042 05/04 A2916 RMK SF4SC2SC2 VIS VRB 2 1/4-4 VIS N 8 CVCTV CLD EMBD SLP882
cycle: 8

Station Type Date Time Source
CYHZ TAF 2022/01/18 06:42 UTC NOAA

TAF CYHZ 180540Z 1806/1906 17010KT 6SM BR SCT004 OVC030
TEMPO 1806/1812 2SM -RA -DZ BR BKN004 OVC030 PROB30 1806/1812 3/4SM -DZ BR OVC003
FM181200 22010KT P6SM SCT008 OVC025
TEMPO 1812/1815 5SM -SHRA BR BKN008 OVC025
FM181500 22010G20KT P6SM SCT015 BKN040
TEMPO 1815/1817 P6SM -SHRA BKN015 OVC040
FM181700 27012G22KT P6SM SCT015 OVC030
TEMPO 1817/1820 2SM -SHRASN BR BKN015 OVC030
FM182000 28018G28KT 1 1/2SM -SHSN BLSN BKN020 OVC040
FM190000 28018G28KT 4SM -SHSN BLSN BKN025 BKN040
FM190300 29018G28KT 6SM -SHSN BLSN BKN030
FM190500 30018G28KT P6SM BKN030
RMK NXT FCST BY 180900Z

Example: see airport list